sensor_id;sensor_type;location;lat;lon;timestamp;temperature;humidity
28244;DHT22;15510;52.512;13.300;2024-03-22T00:00:11;8.90;99.90
28244;DHT22;15510;52.512;13.300;2024-03-22T00:02:43;8.90;99.90
28244;DHT22;15510;52.512;13.300;2024-03-22T00:05:11;8.80;99.90
28244;DHT22;15510;52.512;13.300;2024-03-22T00:07:41;8.80;99.90
28244;DHT22;15510;52.512;13.300;2024-03-22T00:10:10;8.70;99.90
28244;DHT22;15510;52.512;13.300;2024-03-22T00:12:39;8.70;99.90
28244;DHT22;15510;52.512;13.300;2024-03-22T00:15:11;8.70;99.90
28244;DHT22;15510;52.512;13.300;2024-03-22T00:17:51;8.80;99.90
28244;DHT22;15510;52.512;13.300;2024-03-22T00:20:20;8.80;99.90
28244;DHT22;15510;52.512;13.300;2024-03-22T00:22:48;8.90;99.90
28244;DHT22;15510;52.512;13.300;2024-03-22T00:25:28;8.90;99.90
28244;DHT22;15510;52.512;13.300;2024-03-22T00:27:58;8.90;99.90
28244;DHT22;15510;52.512;13.300;2024-03-22T00:30:24;8.80;99.90
28244;DHT22;15510;52.512;13.300;2024-03-22T00:32:53;8.80;99.90
28244;DHT22;15510;52.512;13.300;2024-03-22T00:35:21;8.90;99.90
28244;DHT22;15510;52.512;13.300;2024-03-22T00:37:50;8.90;99.90
28244;DHT22;15510;52.512;13.300;2024-03-22T00:40:16;8.80;99.90
28244;DHT22;15510;52.512;13.300;2024-03-22T00:42:46;8.80;99.90
28244;DHT22;15510;52.512;13.300;2024-03-22T00:45:23;8.80;99.90
28244;DHT22;15510;52.512;13.300;2024-03-22T00:47:50;8.80;99.90
28244;DHT22;15510;52.512;13.300;2024-03-22T00:50:22;8.80;99.90
28244;DHT22;15510;52.512;13.300;2024-03-22T00:52:51;8.80;99.90
28244;DHT22;15510;52.512;13.300;2024-03-22T00:55:21;8.80;99.90
28244;DHT22;15510;52.512;13.300;2024-03-22T00:57:48;8.80;99.90
28244;DHT22;15510;52.512;13.300;2024-03-22T01:00:15;8.80;99.90
28244;DHT22;15510;52.512;13.300;2024-03-22T01:02:42;8.70;99.90
28244;DHT22;15510;52.512;13.300;2024-03-22T01:05:09;8.60;99.90
28244;DHT22;15510;52.512;13.300;2024-03-22T01:07:36;8.50;99.90
28244;DHT22;15510;52.512;13.300;2024-03-22T01:10:14;8.50;99.90
28244;DHT22;15510;52.512;13.300;2024-03-22T01:12:48;8.50;99.90
28244;DHT22;15510;52.512;13.300;2024-03-22T01:15:22;8.50;99.90
28244;DHT22;15510;52.512;13.300;2024-03-22T01:17:53;8.50;99.90
28244;DHT22;15510;52.512;13.300;2024-03-22T01:20:41;8.50;99.90
28244;DHT22;15510;52.512;13.300;2024-03-22T01:23:15;8.50;99.90
28244;DHT22;15510;52.512;13.300;2024-03-22T01:25:41;8.60;99.90
28244;DHT22;15510;52.512;13.300;2024-03-22T01:28:10;8.70;99.90
28244;DHT22;15510;52.512;13.300;2024-03-22T01:30:49;8.70;99.90
28244;DHT22;15510;52.512;13.300;2024-03-22T01:33:17;8.70;99.90
28244;DHT22;15510;52.512;13.300;2024-03-22T01:35:49;8.70;99.90
28244;DHT22;15510;52.512;13.300;2024-03-22T01:38:23;8.60;99.90
28244;DHT22;15510;52.512;13.300;2024-03-22T01:40:55;8.60;99.90
28244;DHT22;15510;52.512;13.300;2024-03-22T01:43:21;8.50;99.90
28244;DHT22;15510;52.512;13.300;2024-03-22T01:45:47;8.50;99.90
28244;DHT22;15510;52.512;13.300;2024-03-22T01:48:16;8.60;99.90
28244;DHT22;15510;52.512;13.300;2024-03-22T01:50:42;8.50;99.90
28244;DHT22;15510;52.512;13.300;2024-03-22T01:53:11;8.50;99.90
28244;DHT22;15510;52.512;13.300;2024-03-22T01:55:37;8.50;99.90
28244;DHT22;15510;52.512;13.300;2024-03-22T01:58:09;8.50;99.90
28244;DHT22;15510;52.512;13.300;2024-03-22T02:00:41;8.50;99.90
28244;DHT22;15510;52.512;13.300;2024-03-22T02:03:12;8.50;99.90
28244;DHT22;15510;52.512;13.300;2024-03-22T02:05:49;8.50;99.90
28244;DHT22;15510;52.512;13.300;2024-03-22T02:08:19;8.40;99.90
28244;DHT22;15510;52.512;13.300;2024-03-22T02:10:45;8.50;99.90
28244;DHT22;15510;52.512;13.300;2024-03-22T02:13:15;8.50;99.90
28244;DHT22;15510;52.512;13.300;2024-03-22T02:15:47;8.50;99.90
28244;DHT22;15510;52.512;13.300;2024-03-22T02:18:19;8.40;99.90
28244;DHT22;15510;52.512;13.300;2024-03-22T02:21:05;8.50;99.90
28244;DHT22;15510;52.512;13.300;2024-03-22T02:23:40;8.50;99.90
28244;DHT22;15510;52.512;13.300;2024-03-22T02:26:07;8.40;99.90
28244;DHT22;15510;52.512;13.300;2024-03-22T02:28:35;8.50;99.90
28244;DHT22;15510;52.512;13.300;2024-03-22T02:31:02;8.50;99.90
28244;DHT22;15510;52.512;13.300;2024-03-22T02:33:29;8.50;99.90
28244;DHT22;15510;52.512;13.300;2024-03-22T02:35:58;8.50;99.90
28244;DHT22;15510;52.512;13.300;2024-03-22T02:38:24;8.60;99.90
28244;DHT22;15510;52.512;13.300;2024-03-22T02:40:53;8.60;99.90
28244;DHT22;15510;52.512;13.300;2024-03-22T02:43:19;8.60;99.90
28244;DHT22;15510;52.512;13.300;2024-03-22T02:45:48;8.60;99.90
28244;DHT22;15510;52.512;13.300;2024-03-22T02:48:14;8.60;99.90
28244;DHT22;15510;52.512;13.300;2024-03-22T02:50:40;8.60;99.90
28244;DHT22;15510;52.512;13.300;2024-03-22T02:56:02;8.50;99.90
28244;DHT22;15510;52.512;13.300;2024-03-22T02:58:28;8.50;99.90
28244;DHT22;15510;52.512;13.300;2024-03-22T03:00:54;8.50;99.90
28244;DHT22;15510;52.512;13.300;2024-03-22T03:03:22;8.50;99.90
28244;DHT22;15510;52.512;13.300;2024-03-22T03:05:55;8.60;99.90
28244;DHT22;15510;52.512;13.300;2024-03-22T03:08:27;8.60;99.90
28244;DHT22;15510;52.512;13.300;2024-03-22T03:10:56;8.60;99.90
28244;DHT22;15510;52.512;13.300;2024-03-22T03:13:22;8.50;99.90
28244;DHT22;15510;52.512;13.300;2024-03-22T03:15:56;8.50;99.90
28244;DHT22;15510;52.512;13.300;2024-03-22T03:18:21;8.40;99.90
28244;DHT22;15510;52.512;13.300;2024-03-22T03:20:53;8.40;99.90
28244;DHT22;15510;52.512;13.300;2024-03-22T03:23:19;8.50;99.90
28244;DHT22;15510;52.512;13.300;2024-03-22T03:25:52;8.50;99.90
28244;DHT22;15510;52.512;13.300;2024-03-22T03:28:23;8.40;99.90
28244;DHT22;15510;52.512;13.300;2024-03-22T03:30:54;8.40;99.90
28244;DHT22;15510;52.512;13.300;2024-03-22T03:33:29;8.40;99.90
28244;DHT22;15510;52.512;13.300;2024-03-22T03:36:10;8.50;99.90
28244;DHT22;15510;52.512;13.300;2024-03-22T03:38:39;8.50;99.90
28244;DHT22;15510;52.512;13.300;2024-03-22T03:41:46;8.50;99.90
28244;DHT22;15510;52.512;13.300;2024-03-22T03:44:05;8.50;99.90
28244;DHT22;15510;52.512;13.300;2024-03-22T03:46:38;8.60;99.90
28244;DHT22;15510;52.512;13.300;2024-03-22T03:49:12;8.50;99.90
28244;DHT22;15510;52.512;13.300;2024-03-22T03:51:40;8.60;99.90
28244;DHT22;15510;52.512;13.300;2024-03-22T03:54:11;8.60;99.90
28244;DHT22;15510;52.512;13.300;2024-03-22T03:56:39;8.60;99.90
28244;DHT22;15510;52.512;13.300;2024-03-22T03:59:11;8.50;99.90
28244;DHT22;15510;52.512;13.300;2024-03-22T04:01:40;8.60;99.90
28244;DHT22;15510;52.512;13.300;2024-03-22T04:04:13;8.60;99.90
28244;DHT22;15510;52.512;13.300;2024-03-22T04:06:39;8.60;99.90
28244;DHT22;15510;52.512;13.300;2024-03-22T04:09:04;8.70;99.90
28244;DHT22;15510;52.512;13.300;2024-03-22T04:11:31;8.70;99.90
28244;DHT22;15510;52.512;13.300;2024-03-22T04:14:00;8.70;99.90
28244;DHT22;15510;52.512;13.300;2024-03-22T04:16:29;8.70;99.90
28244;DHT22;15510;52.512;13.300;2024-03-22T04:18:57;8.60;99.90
28244;DHT22;15510;52.512;13.300;2024-03-22T04:21:23;8.70;99.90
28244;DHT22;15510;52.512;13.300;2024-03-22T04:23:49;8.70;99.90
28244;DHT22;15510;52.512;13.300;2024-03-22T04:26:18;8.70;99.90
28244;DHT22;15510;52.512;13.300;2024-03-22T04:28:44;8.70;99.90
28244;DHT22;15510;52.512;13.300;2024-03-22T04:31:11;8.80;99.90
28244;DHT22;15510;52.512;13.300;2024-03-22T04:33:39;8.80;99.90
28244;DHT22;15510;52.512;13.300;2024-03-22T04:36:08;8.80;99.90
28244;DHT22;15510;52.512;13.300;2024-03-22T04:38:37;8.90;99.90
28244;DHT22;15510;52.512;13.300;2024-03-22T04:41:06;8.90;99.90
28244;DHT22;15510;52.512;13.300;2024-03-22T04:43:38;8.90;99.90
28244;DHT22;15510;52.512;13.300;2024-03-22T04:46:04;8.80;99.90
28244;DHT22;15510;52.512;13.300;2024-03-22T04:48:35;8.80;99.90
28244;DHT22;15510;52.512;13.300;2024-03-22T04:51:06;8.70;99.90
28244;DHT22;15510;52.512;13.300;2024-03-22T04:53:35;8.70;99.90
28244;DHT22;15510;52.512;13.300;2024-03-22T04:56:04;8.80;99.90
28244;DHT22;15510;52.512;13.300;2024-03-22T04:58:33;8.80;99.90
28244;DHT22;15510;52.512;13.300;2024-03-22T05:01:05;8.80;99.90
28244;DHT22;15510;52.512;13.300;2024-03-22T05:03:36;8.80;99.90
28244;DHT22;15510;52.512;13.300;2024-03-22T05:06:07;8.80;99.90
28244;DHT22;15510;52.512;13.300;2024-03-22T05:08:33;8.80;99.90
28244;DHT22;15510;52.512;13.300;2024-03-22T05:11:03;8.80;99.90
28244;DHT22;15510;52.512;13.300;2024-03-22T05:13:36;8.80;99.90
28244;DHT22;15510;52.512;13.300;2024-03-22T05:16:01;8.70;99.90
28244;DHT22;15510;52.512;13.300;2024-03-22T05:18:36;8.70;99.90
28244;DHT22;15510;52.512;13.300;2024-03-22T05:21:02;8.80;99.90
28244;DHT22;15510;52.512;13.300;2024-03-22T05:23:35;8.80;99.90
28244;DHT22;15510;52.512;13.300;2024-03-22T05:26:01;8.80;99.90
28244;DHT22;15510;52.512;13.300;2024-03-22T05:28:27;8.80;99.90
28244;DHT22;15510;52.512;13.300;2024-03-22T05:30:53;8.80;99.90
28244;DHT22;15510;52.512;13.300;2024-03-22T05:33:18;8.90;99.90
28244;DHT22;15510;52.512;13.300;2024-03-22T05:35:47;8.90;99.90
28244;DHT22;15510;52.512;13.300;2024-03-22T05:38:12;8.90;99.90
28244;DHT22;15510;52.512;13.300;2024-03-22T05:40:38;8.90;99.90
28244;DHT22;15510;52.512;13.300;2024-03-22T05:43:04;9.00;99.90
28244;DHT22;15510;52.512;13.300;2024-03-22T05:45:30;9.00;99.90
28244;DHT22;15510;52.512;13.300;2024-03-22T05:47:56;9.00;99.90
28244;DHT22;15510;52.512;13.300;2024-03-22T05:50:22;9.00;99.90
28244;DHT22;15510;52.512;13.300;2024-03-22T05:52:48;9.00;99.90
28244;DHT22;15510;52.512;13.300;2024-03-22T05:55:14;9.00;99.90
28244;DHT22;15510;52.512;13.300;2024-03-22T05:57:40;9.00;99.90
28244;DHT22;15510;52.512;13.300;2024-03-22T06:00:06;9.00;99.90
28244;DHT22;15510;52.512;13.300;2024-03-22T06:02:34;9.00;99.90
28244;DHT22;15510;52.512;13.300;2024-03-22T06:05:03;9.00;99.90
28244;DHT22;15510;52.512;13.300;2024-03-22T06:07:37;9.10;99.90
28244;DHT22;15510;52.512;13.300;2024-03-22T06:10:10;9.10;99.90
28244;DHT22;15510;52.512;13.300;2024-03-22T06:12:36;9.10;99.90
28244;DHT22;15510;52.512;13.300;2024-03-22T06:15:04;9.10;99.90
28244;DHT22;15510;52.512;13.300;2024-03-22T06:17:32;9.10;99.90
28244;DHT22;15510;52.512;13.300;2024-03-22T06:19:59;9.10;99.90
28244;DHT22;15510;52.512;13.300;2024-03-22T06:22:25;9.10;99.90
28244;DHT22;15510;52.512;13.300;2024-03-22T06:24:52;9.20;99.90
28244;DHT22;15510;52.512;13.300;2024-03-22T06:27:18;9.20;99.90
28244;DHT22;15510;52.512;13.300;2024-03-22T06:29:44;9.20;99.90
28244;DHT22;15510;52.512;13.300;2024-03-22T06:32:10;9.20;99.90
28244;DHT22;15510;52.512;13.300;2024-03-22T06:34:36;9.20;99.90
28244;DHT22;15510;52.512;13.300;2024-03-22T06:37:02;9.20;99.90
28244;DHT22;15510;52.512;13.300;2024-03-22T06:39:30;9.20;99.90
28244;DHT22;15510;52.512;13.300;2024-03-22T06:41:56;9.30;99.90
28244;DHT22;15510;52.512;13.300;2024-03-22T06:44:26;9.30;99.90
28244;DHT22;15510;52.512;13.300;2024-03-22T06:46:52;9.30;99.90
28244;DHT22;15510;52.512;13.300;2024-03-22T06:49:18;9.40;99.90
28244;DHT22;15510;52.512;13.300;2024-03-22T06:51:53;9.40;99.90
28244;DHT22;15510;52.512;13.300;2024-03-22T06:54:19;9.50;99.90
28244;DHT22;15510;52.512;13.300;2024-03-22T06:56:45;9.50;99.90
28244;DHT22;15510;52.512;13.300;2024-03-22T06:59:14;9.60;99.90
28244;DHT22;15510;52.512;13.300;2024-03-22T07:01:39;9.70;99.90
28244;DHT22;15510;52.512;13.300;2024-03-22T07:04:05;9.70;99.90
28244;DHT22;15510;52.512;13.300;2024-03-22T07:06:31;9.70;99.90
28244;DHT22;15510;52.512;13.300;2024-03-22T07:09:00;9.90;99.90
28244;DHT22;15510;52.512;13.300;2024-03-22T07:11:26;9.90;99.90
28244;DHT22;15510;52.512;13.300;2024-03-22T07:13:55;10.00;99.90
28244;DHT22;15510;52.512;13.300;2024-03-22T07:16:23;10.10;99.90
28244;DHT22;15510;52.512;13.300;2024-03-22T07:18:49;10.10;99.90
28244;DHT22;15510;52.512;13.300;2024-03-22T07:21:15;10.20;99.90
28244;DHT22;15510;52.512;13.300;2024-03-22T07:23:41;10.20;99.90
28244;DHT22;15510;52.512;13.300;2024-03-22T07:26:07;10.30;99.90
28244;DHT22;15510;52.512;13.300;2024-03-22T07:28:33;10.20;99.90
28244;DHT22;15510;52.512;13.300;2024-03-22T07:31:02;10.20;99.90
28244;DHT22;15510;52.512;13.300;2024-03-22T07:33:27;10.30;99.90
28244;DHT22;15510;52.512;13.300;2024-03-22T07:35:53;10.20;99.90
28244;DHT22;15510;52.512;13.300;2024-03-22T07:38:20;10.20;99.90
28244;DHT22;15510;52.512;13.300;2024-03-22T07:40:46;10.20;99.90
28244;DHT22;15510;52.512;13.300;2024-03-22T07:43:14;10.30;99.90
28244;DHT22;15510;52.512;13.300;2024-03-22T07:45:42;10.40;99.90
28244;DHT22;15510;52.512;13.300;2024-03-22T07:48:08;10.40;99.90
28244;DHT22;15510;52.512;13.300;2024-03-22T07:50:33;10.40;99.90
28244;DHT22;15510;52.512;13.300;2024-03-22T07:52:59;10.50;99.90
28244;DHT22;15510;52.512;13.300;2024-03-22T07:55:25;10.40;99.90
28244;DHT22;15510;52.512;13.300;2024-03-22T07:57:54;10.40;99.90
28244;DHT22;15510;52.512;13.300;2024-03-22T08:00:20;10.50;99.90
28244;DHT22;15510;52.512;13.300;2024-03-22T08:02:46;10.60;99.90
28244;DHT22;15510;52.512;13.300;2024-03-22T08:05:15;10.70;99.90
28244;DHT22;15510;52.512;13.300;2024-03-22T08:07:41;10.80;99.90
28244;DHT22;15510;52.512;13.300;2024-03-22T08:10:09;10.90;99.90
28244;DHT22;15510;52.512;13.300;2024-03-22T08:12:35;11.00;99.90
28244;DHT22;15510;52.512;13.300;2024-03-22T08:15:01;11.10;99.90
28244;DHT22;15510;52.512;13.300;2024-03-22T08:17:30;11.10;99.90
28244;DHT22;15510;52.512;13.300;2024-03-22T08:19:57;11.10;99.90
28244;DHT22;15510;52.512;13.300;2024-03-22T08:22:22;11.10;99.90
28244;DHT22;15510;52.512;13.300;2024-03-22T08:24:48;11.10;99.90
28244;DHT22;15510;52.512;13.300;2024-03-22T08:27:16;11.20;99.90
28244;DHT22;15510;52.512;13.300;2024-03-22T08:29:45;11.20;99.90
28244;DHT22;15510;52.512;13.300;2024-03-22T08:32:10;11.20;99.90
28244;DHT22;15510;52.512;13.300;2024-03-22T08:34:38;11.10;99.90
28244;DHT22;15510;52.512;13.300;2024-03-22T08:37:11;11.10;99.90
28244;DHT22;15510;52.512;13.300;2024-03-22T08:39:36;11.10;99.90
28244;DHT22;15510;52.512;13.300;2024-03-22T08:42:02;11.20;99.90
28244;DHT22;15510;52.512;13.300;2024-03-22T08:44:31;11.20;99.90
28244;DHT22;15510;52.512;13.300;2024-03-22T08:47:00;11.40;99.90
28244;DHT22;15510;52.512;13.300;2024-03-22T08:49:26;11.50;99.90
28244;DHT22;15510;52.512;13.300;2024-03-22T08:51:52;11.50;99.90
28244;DHT22;15510;52.512;13.300;2024-03-22T08:54:20;11.60;99.90
28244;DHT22;15510;52.512;13.300;2024-03-22T08:56:48;11.60;99.90
28244;DHT22;15510;52.512;13.300;2024-03-22T08:59:14;11.60;99.90
28244;DHT22;15510;52.512;13.300;2024-03-22T09:01:43;11.70;99.90
28244;DHT22;15510;52.512;13.300;2024-03-22T09:04:09;11.70;99.90
28244;DHT22;15510;52.512;13.300;2024-03-22T09:06:37;11.90;99.90
28244;DHT22;15510;52.512;13.300;2024-03-22T09:09:03;12.00;99.90
28244;DHT22;15510;52.512;13.300;2024-03-22T09:11:29;12.10;99.90
28244;DHT22;15510;52.512;13.300;2024-03-22T09:13:55;12.20;99.90
28244;DHT22;15510;52.512;13.300;2024-03-22T09:16:22;12.30;99.90
28244;DHT22;15510;52.512;13.300;2024-03-22T09:18:48;12.40;99.90
28244;DHT22;15510;52.512;13.300;2024-03-22T09:21:14;12.50;99.90
28244;DHT22;15510;52.512;13.300;2024-03-22T09:23:40;12.50;99.90
28244;DHT22;15510;52.512;13.300;2024-03-22T09:26:08;12.50;99.90
28244;DHT22;15510;52.512;13.300;2024-03-22T09:28:34;12.60;99.90
28244;DHT22;15510;52.512;13.300;2024-03-22T09:31:09;12.50;99.90
28244;DHT22;15510;52.512;13.300;2024-03-22T09:33:34;12.60;99.90
28244;DHT22;15510;52.512;13.300;2024-03-22T09:36:01;12.50;99.90
28244;DHT22;15510;52.512;13.300;2024-03-22T09:38:30;12.50;99.90
28244;DHT22;15510;52.512;13.300;2024-03-22T09:40:55;12.60;99.90
28244;DHT22;15510;52.512;13.300;2024-03-22T09:43:22;12.60;99.90
28244;DHT22;15510;52.512;13.300;2024-03-22T09:45:49;12.60;99.90
28244;DHT22;15510;52.512;13.300;2024-03-22T09:48:21;12.50;99.90
28244;DHT22;15510;52.512;13.300;2024-03-22T09:50:50;12.50;99.90
28244;DHT22;15510;52.512;13.300;2024-03-22T09:53:19;12.50;99.90
28244;DHT22;15510;52.512;13.300;2024-03-22T09:55:46;12.50;99.90
28244;DHT22;15510;52.512;13.300;2024-03-22T09:58:12;12.60;99.90
28244;DHT22;15510;52.512;13.300;2024-03-22T10:00:40;12.60;99.90
28244;DHT22;15510;52.512;13.300;2024-03-22T10:03:06;12.60;99.90
28244;DHT22;15510;52.512;13.300;2024-03-22T10:05:36;12.60;99.90
28244;DHT22;15510;52.512;13.300;2024-03-22T10:08:08;12.80;99.90
28244;DHT22;15510;52.512;13.300;2024-03-22T10:10:43;12.80;99.90
28244;DHT22;15510;52.512;13.300;2024-03-22T10:13:09;12.90;99.90
28244;DHT22;15510;52.512;13.300;2024-03-22T10:15:35;13.00;99.90
28244;DHT22;15510;52.512;13.300;2024-03-22T10:18:04;13.10;99.90
28244;DHT22;15510;52.512;13.300;2024-03-22T10:20:30;13.20;99.90
28244;DHT22;15510;52.512;13.300;2024-03-22T10:22:57;13.20;99.90
28244;DHT22;15510;52.512;13.300;2024-03-22T10:25:29;13.20;99.90
28244;DHT22;15510;52.512;13.300;2024-03-22T10:27:58;13.20;99.90
28244;DHT22;15510;52.512;13.300;2024-03-22T10:30:25;13.30;99.90
28244;DHT22;15510;52.512;13.300;2024-03-22T10:32:52;13.20;99.90
28244;DHT22;15510;52.512;13.300;2024-03-22T10:35:18;13.30;99.90
28244;DHT22;15510;52.512;13.300;2024-03-22T10:37:44;13.40;99.90
28244;DHT22;15510;52.512;13.300;2024-03-22T10:40:10;13.60;99.90
28244;DHT22;15510;52.512;13.300;2024-03-22T10:42:41;13.70;99.90
28244;DHT22;15510;52.512;13.300;2024-03-22T10:45:10;13.90;99.90
28244;DHT22;15510;52.512;13.300;2024-03-22T10:47:39;14.20;99.90
28244;DHT22;15510;52.512;13.300;2024-03-22T10:50:10;14.20;99.90
28244;DHT22;15510;52.512;13.300;2024-03-22T10:52:40;14.40;99.90
28244;DHT22;15510;52.512;13.300;2024-03-22T10:55:11;14.60;99.90
28244;DHT22;15510;52.512;13.300;2024-03-22T10:57:38;14.70;99.90
28244;DHT22;15510;52.512;13.300;2024-03-22T11:00:08;14.80;99.90
28244;DHT22;15510;52.512;13.300;2024-03-22T11:02:39;14.80;99.90
28244;DHT22;15510;52.512;13.300;2024-03-22T11:05:16;14.70;99.90
28244;DHT22;15510;52.512;13.300;2024-03-22T11:07:44;14.60;99.90
28244;DHT22;15510;52.512;13.300;2024-03-22T11:10:13;14.50;99.90
28244;DHT22;15510;52.512;13.300;2024-03-22T11:12:45;14.50;99.90
28244;DHT22;15510;52.512;13.300;2024-03-22T11:15:11;14.40;99.90
28244;DHT22;15510;52.512;13.300;2024-03-22T11:17:40;14.30;99.90
28244;DHT22;15510;52.512;13.300;2024-03-22T11:20:07;14.10;99.90
28244;DHT22;15510;52.512;13.300;2024-03-22T11:22:34;14.00;99.90
28244;DHT22;15510;52.512;13.300;2024-03-22T11:25:00;13.80;99.90
28244;DHT22;15510;52.512;13.300;2024-03-22T11:27:29;13.80;99.90
28244;DHT22;15510;52.512;13.300;2024-03-22T11:29:55;13.70;99.90
28244;DHT22;15510;52.512;13.300;2024-03-22T11:32:22;13.60;99.90
28244;DHT22;15510;52.512;13.300;2024-03-22T11:34:51;13.60;99.90
28244;DHT22;15510;52.512;13.300;2024-03-22T11:37:17;13.50;99.90
28244;DHT22;15510;52.512;13.300;2024-03-22T11:39:43;13.50;99.90
28244;DHT22;15510;52.512;13.300;2024-03-22T11:42:12;13.40;99.90
28244;DHT22;15510;52.512;13.300;2024-03-22T11:44:41;13.30;99.90
28244;DHT22;15510;52.512;13.300;2024-03-22T11:47:08;13.30;99.90
28244;DHT22;15510;52.512;13.300;2024-03-22T11:49:34;13.20;99.90
28244;DHT22;15510;52.512;13.300;2024-03-22T11:52:03;13.10;99.90
28244;DHT22;15510;52.512;13.300;2024-03-22T11:54:29;13.10;99.90
28244;DHT22;15510;52.512;13.300;2024-03-22T11:56:57;13.10;99.90
28244;DHT22;15510;52.512;13.300;2024-03-22T11:59:30;13.10;99.90
28244;DHT22;15510;52.512;13.300;2024-03-22T12:01:56;13.10;99.90
28244;DHT22;15510;52.512;13.300;2024-03-22T12:04:22;13.10;99.90
28244;DHT22;15510;52.512;13.300;2024-03-22T12:06:56;12.90;99.90
28244;DHT22;15510;52.512;13.300;2024-03-22T12:09:25;12.80;99.90
28244;DHT22;15510;52.512;13.300;2024-03-22T12:11:55;12.70;99.90
28244;DHT22;15510;52.512;13.300;2024-03-22T12:14:24;12.60;99.90
28244;DHT22;15510;52.512;13.300;2024-03-22T12:16:53;12.50;99.90
28244;DHT22;15510;52.512;13.300;2024-03-22T12:19:18;12.50;99.90
28244;DHT22;15510;52.512;13.300;2024-03-22T12:21:44;12.40;99.90
28244;DHT22;15510;52.512;13.300;2024-03-22T12:24:13;12.40;99.90
28244;DHT22;15510;52.512;13.300;2024-03-22T12:26:40;12.30;99.90
28244;DHT22;15510;52.512;13.300;2024-03-22T12:29:06;12.20;99.90
28244;DHT22;15510;52.512;13.300;2024-03-22T12:31:37;12.20;99.90
28244;DHT22;15510;52.512;13.300;2024-03-22T12:34:03;12.20;99.90
28244;DHT22;15510;52.512;13.300;2024-03-22T12:36:29;12.10;99.90
28244;DHT22;15510;52.512;13.300;2024-03-22T12:38:58;12.10;99.90
28244;DHT22;15510;52.512;13.300;2024-03-22T12:41:25;12.10;99.90
28244;DHT22;15510;52.512;13.300;2024-03-22T12:43:51;12.10;99.90
28244;DHT22;15510;52.512;13.300;2024-03-22T12:46:17;12.00;99.90
28244;DHT22;15510;52.512;13.300;2024-03-22T12:48:43;12.00;99.90
28244;DHT22;15510;52.512;13.300;2024-03-22T12:51:09;11.90;99.90
28244;DHT22;15510;52.512;13.300;2024-03-22T12:53:38;11.90;99.90
28244;DHT22;15510;52.512;13.300;2024-03-22T12:56:04;11.90;99.90
28244;DHT22;15510;52.512;13.300;2024-03-22T12:58:37;11.90;99.90
28244;DHT22;15510;52.512;13.300;2024-03-22T13:01:05;11.80;99.90
28244;DHT22;15510;52.512;13.300;2024-03-22T13:03:34;11.80;99.90
28244;DHT22;15510;52.512;13.300;2024-03-22T13:06:03;11.80;99.90
28244;DHT22;15510;52.512;13.300;2024-03-22T13:08:29;11.70;99.90
28244;DHT22;15510;52.512;13.300;2024-03-22T13:10:56;11.70;99.90
28244;DHT22;15510;52.512;13.300;2024-03-22T13:13:21;11.70;99.90
28244;DHT22;15510;52.512;13.300;2024-03-22T13:15:47;11.70;99.90
28244;DHT22;15510;52.512;13.300;2024-03-22T13:18:13;11.70;99.90
28244;DHT22;15510;52.512;13.300;2024-03-22T13:20:39;11.70;99.90
28244;DHT22;15510;52.512;13.300;2024-03-22T13:23:08;11.70;99.90
28244;DHT22;15510;52.512;13.300;2024-03-22T13:25:37;11.70;99.90
28244;DHT22;15510;52.512;13.300;2024-03-22T13:28:03;11.70;99.90
28244;DHT22;15510;52.512;13.300;2024-03-22T13:30:31;11.60;99.90
28244;DHT22;15510;52.512;13.300;2024-03-22T13:32:57;11.70;99.90
28244;DHT22;15510;52.512;13.300;2024-03-22T13:35:32;11.70;99.90
28244;DHT22;15510;52.512;13.300;2024-03-22T13:38:01;11.70;99.90
28244;DHT22;15510;52.512;13.300;2024-03-22T13:40:27;11.80;99.90
28244;DHT22;15510;52.512;13.300;2024-03-22T13:42:53;11.90;99.90
28244;DHT22;15510;52.512;13.300;2024-03-22T13:45:19;11.90;99.90
28244;DHT22;15510;52.512;13.300;2024-03-22T13:47:48;11.90;99.90
28244;DHT22;15510;52.512;13.300;2024-03-22T13:50:17;12.00;99.90
28244;DHT22;15510;52.512;13.300;2024-03-22T13:52:51;12.00;99.90
28244;DHT22;15510;52.512;13.300;2024-03-22T13:55:17;12.10;99.90
28244;DHT22;15510;52.512;13.300;2024-03-22T13:57:43;12.10;99.90
28244;DHT22;15510;52.512;13.300;2024-03-22T14:00:13;12.20;99.90
28244;DHT22;15510;52.512;13.300;2024-03-22T14:02:54;12.20;99.90
28244;DHT22;15510;52.512;13.300;2024-03-22T14:05:35;12.30;99.90
28244;DHT22;15510;52.512;13.300;2024-03-22T14:08:25;12.30;99.90
28244;DHT22;15510;52.512;13.300;2024-03-22T14:11:04;12.30;99.90
28244;DHT22;15510;52.512;13.300;2024-03-22T14:13:39;12.20;99.90
28244;DHT22;15510;52.512;13.300;2024-03-22T14:16:05;12.20;99.90
28244;DHT22;15510;52.512;13.300;2024-03-22T14:18:40;12.30;99.90
28244;DHT22;15510;52.512;13.300;2024-03-22T14:21:11;12.30;99.90
28244;DHT22;15510;52.512;13.300;2024-03-22T14:23:48;12.30;99.90
28244;DHT22;15510;52.512;13.300;2024-03-22T14:26:21;12.30;99.90
28244;DHT22;15510;52.512;13.300;2024-03-22T14:29:18;12.30;99.90
28244;DHT22;15510;52.512;13.300;2024-03-22T14:31:58;12.30;99.90
28244;DHT22;15510;52.512;13.300;2024-03-22T14:34:25;12.30;99.90
28244;DHT22;15510;52.512;13.300;2024-03-22T14:36:53;12.30;99.90
28244;DHT22;15510;52.512;13.300;2024-03-22T14:39:20;12.30;99.90
28244;DHT22;15510;52.512;13.300;2024-03-22T14:41:46;12.30;99.90
28244;DHT22;15510;52.512;13.300;2024-03-22T14:44:14;12.30;99.90
28244;DHT22;15510;52.512;13.300;2024-03-22T14:46:41;12.30;99.90
28244;DHT22;15510;52.512;13.300;2024-03-22T14:49:13;12.30;99.90
28244;DHT22;15510;52.512;13.300;2024-03-22T14:51:49;12.20;99.90
28244;DHT22;15510;52.512;13.300;2024-03-22T14:54:16;12.20;99.90
28244;DHT22;15510;52.512;13.300;2024-03-22T14:56:42;12.20;99.90
28244;DHT22;15510;52.512;13.300;2024-03-22T14:59:11;12.20;99.90
28244;DHT22;15510;52.512;13.300;2024-03-22T15:01:40;12.30;99.90
28244;DHT22;15510;52.512;13.300;2024-03-22T15:04:06;12.20;99.90
28244;DHT22;15510;52.512;13.300;2024-03-22T15:06:33;12.30;99.90
28244;DHT22;15510;52.512;13.300;2024-03-22T15:09:02;12.30;99.90
28244;DHT22;15510;52.512;13.300;2024-03-22T15:11:40;12.20;99.90
28244;DHT22;15510;52.512;13.300;2024-03-22T15:14:08;12.20;99.90
28244;DHT22;15510;52.512;13.300;2024-03-22T15:16:36;12.30;99.90
28244;DHT22;15510;52.512;13.300;2024-03-22T15:19:10;12.20;99.90
28244;DHT22;15510;52.512;13.300;2024-03-22T15:21:44;12.20;99.90
28244;DHT22;15510;52.512;13.300;2024-03-22T15:24:13;12.20;99.90
28244;DHT22;15510;52.512;13.300;2024-03-22T15:26:42;12.20;99.90
28244;DHT22;15510;52.512;13.300;2024-03-22T15:29:08;12.20;99.90
28244;DHT22;15510;52.512;13.300;2024-03-22T15:31:34;12.10;99.90
28244;DHT22;15510;52.512;13.300;2024-03-22T15:34:03;12.10;99.90